Time;durP1;ratioP1;P1;durP2;ratioP2;P2;SDS_P1;SDS_P2;PMS_P1;PMS_P2;Temp;Humidity;BMP_temperature;BMP_pressure;BME280_temperature;BME280_humidity;BME280_pressure;Samples;Min_cycle;Max_cycle;Signal;HPM_P1;HPM_P2
2022/06/04 00:00:11;;;;;;;;;;;28.30;37.70;;;;;;5076650;28;949;-46
2022/06/04 00:02:39;;;;;;;;;;;28.30;37.80;;;;;;5076702;28;1066;-46
2022/06/04 00:05:06;;;;;;;;;;;28.40;37.80;;;;;;5076305;28;900;-46
2022/06/04 00:07:33;;;;;;;;;;;28.40;37.80;;;;;;5075559;28;1031;-46
2022/06/04 00:15:33;;;;;;;;;;;28.30;37.60;;;;;;5075855;28;1015;-44
2022/06/04 00:18:00;;;;;;;;;;;28.40;38.00;;;;;;5077254;28;988;-46
2022/06/04 00:20:27;;;;;;;;;;;28.40;37.90;;;;;;5076333;28;988;-46
2022/06/04 00:22:57;;;;;;;;;;;28.40;37.80;;;;;;5076525;28;1153;-46
2022/06/04 00:25:24;;;;;;;;;;;28.40;37.80;;;;;;5076188;28;1016;-44
2022/06/04 00:27:52;;;;;;;;;;;28.40;37.90;;;;;;5076096;28;957;-46
2022/06/04 00:30:19;;;;;;;;;;;28.40;37.80;;;;;;5076110;28;1906;-45
2022/06/04 00:32:46;;;;;;;;;;;28.30;38.00;;;;;;5075018;28;920;-44
2022/06/04 00:35:14;;;;;;;;;;;28.40;38.00;;;;;;5076201;28;993;-46
2022/06/04 00:37:40;;;;;;;;;;;28.40;37.90;;;;;;5076692;28;1011;-44
2022/06/04 00:40:09;;;;;;;;;;;28.40;37.80;;;;;;5076704;28;1032;-46
2022/06/04 00:42:35;;;;;;;;;;;28.40;38.00;;;;;;5076247;28;976;-46
2022/06/04 00:45:20;;;;;;;;;;;28.30;37.90;;;;;;5075608;28;1022;-45
2022/06/04 00:47:48;;;;;;;;;;;28.40;38.00;;;;;;5075324;28;1440;-46
2022/06/04 00:50:16;;;;;;;;;;;28.30;38.00;;;;;;5075204;28;1984;-45
2022/06/04 00:52:44;;;;;;;;;;;28.30;38.00;;;;;;5075363;28;952;-44
2022/06/04 00:55:12;;;;;;;;;;;28.30;38.10;;;;;;5075267;28;924;-46
2022/06/04 00:57:44;;;;;;;;;;;28.30;37.90;;;;;;5075708;28;956;-46
2022/06/04 01:00:12;;;;;;;;;;;28.30;38.00;;;;;;5076224;28;1334;-46
2022/06/04 01:02:45;;;;;;;;;;;28.20;38.10;;;;;;5075732;28;960;-46
2022/06/04 01:05:19;;;;;;;;;;;28.30;38.10;;;;;;5075674;28;983;-46
2022/06/04 01:08:00;;;;;;;;;;;28.30;38.10;;;;;;5076350;28;944;-44
2022/06/04 01:10:37;;;;;;;;;;;28.30;38.10;;;;;;5073683;28;1989;-46
2022/06/04 01:13:08;;;;;;;;;;;28.30;38.10;;;;;;5076358;28;1013;-46
2022/06/04 01:15:40;;;;;;;;;;;28.30;38.10;;;;;;5076681;28;948;-46
2022/06/04 01:18:13;;;;;;;;;;;28.30;38.10;;;;;;5075835;28;952;-46
2022/06/04 01:20:44;;;;;;;;;;;28.30;38.10;;;;;;5076679;28;993;-46
2022/06/04 01:23:24;;;;;;;;;;;28.30;38.10;;;;;;5076565;28;960;-45
2022/06/04 01:26:03;;;;;;;;;;;28.30;38.20;;;;;;5076389;28;868;-45
2022/06/04 01:28:31;;;;;;;;;;;28.30;38.20;;;;;;5076111;28;1902;-44
2022/06/04 01:31:02;;;;;;;;;;;28.30;38.20;;;;;;5075793;28;987;-46
2022/06/04 01:33:32;;;;;;;;;;;28.30;38.20;;;;;;5075441;28;1166;-46
2022/06/04 01:36:02;;;;;;;;;;;28.30;38.10;;;;;;5075913;28;924;-46
2022/06/04 01:38:31;;;;;;;;;;;28.20;38.20;;;;;;5076225;28;1008;-44
2022/06/04 01:41:06;;;;;;;;;;;28.20;38.20;;;;;;5075372;28;1023;-46
2022/06/04 01:43:36;;;;;;;;;;;28.10;38.10;;;;;;5078274;28;979;-44
2022/06/04 01:46:04;;;;;;;;;;;28.10;38.40;;;;;;5080523;28;869;-46
2022/06/04 01:48:33;;;;;;;;;;;28.10;38.30;;;;;;5080782;28;1910;-44
2022/06/04 01:51:03;;;;;;;;;;;28.20;38.20;;;;;;5080071;28;996;-46
2022/06/04 01:53:31;;;;;;;;;;;28.20;38.40;;;;;;5080584;28;944;-46
2022/06/04 01:56:00;;;;;;;;;;;28.10;38.30;;;;;;5079790;28;980;-46
2022/06/04 01:58:29;;;;;;;;;;;28.20;38.30;;;;;;5080259;28;1000;-46
2022/06/04 02:00:58;;;;;;;;;;;28.20;38.30;;;;;;5080301;28;1004;-46
2022/06/04 02:03:29;;;;;;;;;;;28.00;38.40;;;;;;5079163;28;1011;-46
2022/06/04 02:05:59;;;;;;;;;;;28.00;38.30;;;;;;5078697;28;1049;-45
2022/06/04 02:08:29;;;;;;;;;;;28.10;38.40;;;;;;5078673;28;1020;-46
2022/06/04 02:10:58;;;;;;;;;;;28.10;38.50;;;;;;5078680;28;1905;-46
2022/06/04 02:13:25;;;;;;;;;;;28.10;38.30;;;;;;5078875;28;1059;-45
2022/06/04 02:15:54;;;;;;;;;;;28.10;38.50;;;;;;5079112;28;980;-46
2022/06/04 02:18:22;;;;;;;;;;;28.10;38.30;;;;;;5078709;28;1012;-46
2022/06/04 02:24:02;;;;;;;;;;;28.10;38.50;;;;;;5078581;28;610;-46
2022/06/04 02:26:29;;;;;;;;;;;28.10;38.40;;;;;;5078500;28;1017;-46
2022/06/04 02:28:58;;;;;;;;;;;28.10;38.50;;;;;;5078443;28;1901;-46
2022/06/04 02:31:29;;;;;;;;;;;28.10;38.40;;;;;;5078670;28;1005;-46
2022/06/04 02:34:00;;;;;;;;;;;28.10;38.50;;;;;;5078941;28;1007;-46
2022/06/04 02:36:31;;;;;;;;;;;28.10;38.50;;;;;;5079220;28;1032;-44
2022/06/04 02:39:03;;;;;;;;;;;28.10;38.50;;;;;;5079149;28;956;-45
2022/06/04 02:41:32;;;;;;;;;;;28.00;38.40;;;;;;5078624;28;1007;-46
2022/06/04 02:44:03;;;;;;;;;;;28.00;38.40;;;;;;5079284;28;1000;-44
2022/06/04 02:46:32;;;;;;;;;;;28.00;38.40;;;;;;5079097;28;991;-44
2022/06/04 02:49:01;;;;;;;;;;;28.10;38.50;;;;;;5078720;28;1918;-44
2022/06/04 02:51:30;;;;;;;;;;;28.00;38.40;;;;;;5079045;28;1044;-46
2022/06/04 02:53:58;;;;;;;;;;;28.10;38.50;;;;;;5077340;28;1007;-45
2022/06/04 02:56:28;;;;;;;;;;;28.10;38.40;;;;;;5077489;28;968;-46
2022/06/04 02:58:57;;;;;;;;;;;28.00;38.50;;;;;;5079209;28;936;-45
2022/06/04 03:01:24;;;;;;;;;;;28.00;38.40;;;;;;5078442;28;1040;-46
2022/06/04 03:03:51;;;;;;;;;;;28.00;38.40;;;;;;5079363;28;928;-46
2022/06/04 03:06:24;;;;;;;;;;;28.00;38.40;;;;;;5079647;28;1012;-46
2022/06/04 03:08:52;;;;;;;;;;;28.00;38.40;;;;;;5079476;28;1971;-45
2022/06/04 03:11:18;;;;;;;;;;;28.00;38.40;;;;;;5079603;28;945;-44
2022/06/04 03:13:46;;;;;;;;;;;28.00;38.40;;;;;;5078871;28;1029;-46
2022/06/04 03:16:12;;;;;;;;;;;28.00;38.40;;;;;;5078887;28;1024;-44
2022/06/04 03:18:39;;;;;;;;;;;27.90;38.30;;;;;;5079607;28;931;-46
2022/06/04 03:21:06;;;;;;;;;;;28.00;38.40;;;;;;5079243;28;1187;-44
2022/06/04 03:23:34;;;;;;;;;;;28.00;38.30;;;;;;5078451;28;988;-44
2022/06/04 03:26:01;;;;;;;;;;;28.00;38.40;;;;;;5079590;28;904;-46
2022/06/04 03:28:28;;;;;;;;;;;27.90;38.40;;;;;;5078896;28;936;-46
2022/06/04 03:30:54;;;;;;;;;;;27.80;38.50;;;;;;5078939;28;1901;-45
2022/06/04 03:33:21;;;;;;;;;;;28.00;38.50;;;;;;5079577;28;928;-46
2022/06/04 03:35:48;;;;;;;;;;;27.90;38.40;;;;;;5078407;28;1001;-46
2022/06/04 03:38:15;;;;;;;;;;;28.00;38.50;;;;;;5078147;28;972;-44
2022/06/04 03:40:43;;;;;;;;;;;28.00;38.40;;;;;;5079554;28;956;-46
2022/06/04 03:43:10;;;;;;;;;;;27.90;38.40;;;;;;5079270;28;1011;-45
2022/06/04 03:45:36;;;;;;;;;;;27.90;38.40;;;;;;5078534;28;980;-49
2022/06/04 03:48:03;;;;;;;;;;;27.90;38.30;;;;;;5079376;28;939;-48
2022/06/04 03:50:32;;;;;;;;;;;27.90;38.40;;;;;;5079536;28;1975;-47
2022/06/04 03:52:59;;;;;;;;;;;27.90;38.40;;;;;;5078348;28;941;-48
2022/06/04 03:55:25;;;;;;;;;;;27.90;38.50;;;;;;5077681;28;1051;-47
2022/06/04 03:57:54;;;;;;;;;;;27.90;38.40;;;;;;5078969;28;1000;-47
2022/06/04 04:00:21;;;;;;;;;;;27.80;38.50;;;;;;5078886;28;998;-47
2022/06/04 04:02:50;;;;;;;;;;;27.90;38.50;;;;;;5078770;28;945;-47
2022/06/04 04:05:18;;;;;;;;;;;27.90;38.50;;;;;;5079094;28;1002;-48
2022/06/04 04:07:45;;;;;;;;;;;27.90;38.50;;;;;;5077866;28;940;-47
2022/06/04 04:10:12;;;;;;;;;;;28.00;38.40;;;;;;5078200;28;1906;-47
2022/06/04 04:12:40;;;;;;;;;;;27.90;38.40;;;;;;5077404;28;936;-47
2022/06/04 04:15:10;;;;;;;;;;;27.90;38.50;;;;;;5077620;28;986;-47
2022/06/04 04:17:39;;;;;;;;;;;27.90;38.50;;;;;;5077491;28;1016;-48
2022/06/04 04:20:09;;;;;;;;;;;27.90;39.70;;;;;;5078240;28;1009;-47
2022/06/04 04:22:35;;;;;;;;;;;27.80;38.70;;;;;;5077855;28;989;-47
2022/06/04 04:25:02;;;;;;;;;;;27.80;38.60;;;;;;5078073;28;1023;-47
2022/06/04 04:27:29;;;;;;;;;;;27.80;38.60;;;;;;5078093;28;1066;-47
2022/06/04 04:29:56;;;;;;;;;;;27.80;38.60;;;;;;5078024;28;1894;-46
2022/06/04 04:32:24;;;;;;;;;;;27.90;38.60;;;;;;5077928;28;872;-47
2022/06/04 04:34:51;;;;;;;;;;;27.80;38.50;;;;;;5078834;28;1015;-47
2022/06/04 04:37:17;;;;;;;;;;;27.90;38.50;;;;;;5078907;28;1852;-47
2022/06/04 04:39:44;;;;;;;;;;;27.90;38.40;;;;;;5078139;28;960;-47
2022/06/04 04:42:11;;;;;;;;;;;27.90;38.50;;;;;;5077917;28;972;-46
2022/06/04 04:44:37;;;;;;;;;;;27.90;38.50;;;;;;5076446;28;988;-47
2022/06/04 04:47:04;;;;;;;;;;;28.00;38.80;;;;;;5077103;28;904;-46
2022/06/04 04:49:32;;;;;;;;;;;28.00;38.50;;;;;;5076785;28;1894;-46
2022/06/04 04:51:59;;;;;;;;;;;28.00;38.40;;;;;;5078526;28;992;-47
2022/06/04 04:54:26;;;;;;;;;;;27.90;39.40;;;;;;5077439;28;983;-47
2022/06/04 04:56:53;;;;;;;;;;;28.00;38.30;;;;;;5077832;28;1053;-47
2022/06/04 04:59:19;;;;;;;;;;;28.00;38.40;;;;;;5077794;28;924;-47
2022/06/04 05:01:46;;;;;;;;;;;27.90;38.40;;;;;;5077470;28;1015;-46
2022/06/04 05:04:13;;;;;;;;;;;27.90;38.40;;;;;;5077599;28;1005;-47
2022/06/04 05:06:41;;;;;;;;;;;28.00;38.40;;;;;;5077588;28;968;-47
2022/06/04 05:09:08;;;;;;;;;;;28.00;38.40;;;;;;5076265;28;1011;-47
2022/06/04 05:11:35;;;;;;;;;;;28.00;38.40;;;;;;5076951;28;2083;-48
2022/06/04 05:14:02;;;;;;;;;;;28.00;38.30;;;;;;5076652;28;1009;-47
2022/06/04 05:16:29;;;;;;;;;;;28.00;38.30;;;;;;5076242;28;1021;-48
2022/06/04 05:18:57;;;;;;;;;;;27.90;38.40;;;;;;5076265;28;1011;-47
2022/06/04 05:21:24;;;;;;;;;;;28.00;38.40;;;;;;5078433;28;987;-38
2022/06/04 05:23:54;;;;;;;;;;;28.00;38.30;;;;;;5080025;28;1131;-38
2022/06/04 05:26:21;;;;;;;;;;;28.00;38.40;;;;;;5080292;28;965;-37
2022/06/04 05:28:48;;;;;;;;;;;28.00;38.40;;;;;;5080291;28;916;-38
2022/06/04 05:31:15;;;;;;;;;;;28.00;38.30;;;;;;5079679;28;1901;-39
2022/06/04 05:33:41;;;;;;;;;;;27.90;38.40;;;;;;5079629;28;1008;-37
2022/06/04 05:36:08;;;;;;;;;;;28.10;38.40;;;;;;5080195;28;1020;-38
2022/06/04 05:38:36;;;;;;;;;;;28.10;38.30;;;;;;5079769;28;963;-37
2022/06/04 05:41:06;;;;;;;;;;;28.10;38.20;;;;;;5079634;28;940;-38
2022/06/04 05:43:33;;;;;;;;;;;28.10;38.20;;;;;;5079679;28;948;-39
2022/06/04 05:46:00;;;;;;;;;;;28.10;38.20;;;;;;5079719;28;1824;-38
2022/06/04 05:48:27;;;;;;;;;;;28.10;38.20;;;;;;5080314;28;997;-38
2022/06/04 05:50:55;;;;;;;;;;;28.10;38.10;;;;;;5080243;28;1901;-38
2022/06/04 05:53:22;;;;;;;;;;;28.10;38.30;;;;;;5080119;28;978;-39
2022/06/04 05:55:49;;;;;;;;;;;28.10;38.20;;;;;;5080410;28;1051;-36
2022/06/04 05:58:17;;;;;;;;;;;28.10;38.30;;;;;;5081437;28;987;-38
2022/06/04 06:00:45;;;;;;;;;;;28.10;38.30;;;;;;5080111;28;1048;-37
2022/06/04 06:03:11;;;;;;;;;;;28.10;38.30;;;;;;5080574;28;1026;-37
2022/06/04 06:05:41;;;;;;;;;;;28.10;38.20;;;;;;5080843;28;952;-38
2022/06/04 06:08:08;;;;;;;;;;;28.10;38.20;;;;;;5079853;28;911;-36
2022/06/04 06:10:38;;;;;;;;;;;28.10;38.20;;;;;;5079888;28;1953;-37
2022/06/04 06:13:05;;;;;;;;;;;28.10;38.10;;;;;;5079830;28;1047;-37
2022/06/04 06:15:33;;;;;;;;;;;28.10;38.10;;;;;;5079591;28;984;-38
2022/06/04 06:18:00;;;;;;;;;;;28.20;38.30;;;;;;5078568;28;1008;-37
2022/06/04 06:20:27;;;;;;;;;;;28.10;38.20;;;;;;5078565;28;960;-36
2022/06/04 06:22:54;;;;;;;;;;;28.10;38.20;;;;;;5077383;28;988;-36
2022/06/04 06:25:21;;;;;;;;;;;28.20;38.20;;;;;;5077862;28;1016;-37
2022/06/04 06:27:48;;;;;;;;;;;28.10;38.10;;;;;;5078684;28;964;-36
2022/06/04 06:30:15;;;;;;;;;;;28.10;38.10;;;;;;5079903;28;1963;-37
2022/06/04 06:32:43;;;;;;;;;;;28.10;38.10;;;;;;5082007;28;1027;-38
2022/06/04 06:35:10;;;;;;;;;;;28.20;38.00;;;;;;5082571;28;1017;-37
2022/06/04 06:37:37;;;;;;;;;;;28.20;38.00;;;;;;5082621;28;869;-36
2022/06/04 06:40:04;;;;;;;;;;;28.20;37.90;;;;;;5082877;28;908;-37
2022/06/04 06:42:31;;;;;;;;;;;28.20;39.10;;;;;;5083231;28;1029;-36
2022/06/04 06:44:58;;;;;;;;;;;28.20;38.00;;;;;;5082336;28;988;-38
2022/06/04 06:47:24;;;;;;;;;;;28.20;38.10;;;;;;5082910;28;1007;-39
2022/06/04 06:49:52;;;;;;;;;;;28.20;38.20;;;;;;5082186;28;1029;-37
2022/06/04 06:52:20;;;;;;;;;;;28.10;38.10;;;;;;5081878;28;1981;-37
2022/06/04 06:54:47;;;;;;;;;;;28.20;38.20;;;;;;5082127;28;972;-38
2022/06/04 06:57:17;;;;;;;;;;;28.10;38.10;;;;;;5081098;28;1023;-36
2022/06/04 06:59:47;;;;;;;;;;;28.00;38.10;;;;;;5081315;28;996;-36
2022/06/04 07:02:13;;;;;;;;;;;28.10;38.30;;;;;;5081497;28;1007;-36
2022/06/04 07:04:40;;;;;;;;;;;28.10;38.30;;;;;;5081178;28;998;-38
2022/06/04 07:07:08;;;;;;;;;;;28.10;38.20;;;;;;5082149;28;943;-38
2022/06/04 07:09:36;;;;;;;;;;;28.10;38.10;;;;;;5081305;28;1010;-38
2022/06/04 07:12:03;;;;;;;;;;;28.20;38.10;;;;;;5080932;28;1957;-37
2022/06/04 07:14:30;;;;;;;;;;;28.10;38.10;;;;;;5081000;28;1301;-37
2022/06/04 07:16:58;;;;;;;;;;;28.20;38.00;;;;;;5081530;28;1012;-37
2022/06/04 07:19:26;;;;;;;;;;;28.30;38.00;;;;;;5081990;28;1027;-38
2022/06/04 07:21:53;;;;;;;;;;;28.30;37.90;;;;;;5080663;28;1119;-38
2022/06/04 07:24:21;;;;;;;;;;;28.20;37.80;;;;;;5081329;28;984;-37
2022/06/04 07:26:48;;;;;;;;;;;28.20;37.90;;;;;;5080678;28;1184;-37
2022/06/04 07:29:15;;;;;;;;;;;28.00;38.00;;;;;;5081489;28;968;-38
2022/06/04 07:31:42;;;;;;;;;;;28.00;38.20;;;;;;5080670;28;1901;-37
2022/06/04 07:34:08;;;;;;;;;;;27.80;38.30;;;;;;5081695;28;884;-39
2022/06/04 07:36:37;;;;;;;;;;;27.80;38.30;;;;;;5081397;28;993;-38
2022/06/04 07:39:05;;;;;;;;;;;27.80;38.30;;;;;;5081206;28;1000;-37
2022/06/04 07:41:35;;;;;;;;;;;27.90;38.40;;;;;;5080321;28;1035;-37
2022/06/04 07:44:02;;;;;;;;;;;27.90;38.20;;;;;;5081041;28;953;-38
2022/06/04 07:46:30;;;;;;;;;;;27.80;38.40;;;;;;5081382;28;996;-36
2022/06/04 07:48:57;;;;;;;;;;;27.90;38.30;;;;;;5080023;28;933;-38
2022/06/04 07:51:24;;;;;;;;;;;27.80;38.30;;;;;;5075644;28;1890;-36
2022/06/04 07:53:50;;;;;;;;;;;27.90;38.40;;;;;;5074784;28;937;-34
2022/06/04 07:56:18;;;;;;;;;;;27.90;38.40;;;;;;5073736;28;928;-33
2022/06/04 07:58:46;;;;;;;;;;;27.80;38.50;;;;;;5073990;28;930;-34
2022/06/04 08:01:15;;;;;;;;;;;27.90;38.50;;;;;;5073692;28;1024;-34
2022/06/04 08:03:43;;;;;;;;;;;27.80;38.50;;;;;;5078237;28;972;-38
2022/06/04 08:06:10;;;;;;;;;;;27.90;38.50;;;;;;5076321;28;1017;-33
2022/06/04 08:08:37;;;;;;;;;;;27.80;38.50;;;;;;5075386;28;963;-46
2022/06/04 08:11:30;;;;;;;;;;;27.80;38.70;;;;;;5073317;28;1902;-44
2022/06/04 08:13:53;;;;;;;;;;;27.90;38.60;;;;;;5073645;28;1126;-45
2022/06/04 08:16:20;;;;;;;;;;;27.80;38.60;;;;;;5074638;28;999;-47
2022/06/04 08:18:47;;;;;;;;;;;27.80;38.70;;;;;;5074959;28;1001;-45
2022/06/04 08:21:14;;;;;;;;;;;27.80;38.60;;;;;;5075029;28;1035;-45
2022/06/04 08:23:42;;;;;;;;;;;27.70;38.60;;;;;;5074188;28;949;-47
2022/06/04 08:26:09;;;;;;;;;;;27.80;38.70;;;;;;5075262;28;998;-47
2022/06/04 08:28:36;;;;;;;;;;;27.80;38.60;;;;;;5075114;28;1017;-48
2022/06/04 08:31:06;;;;;;;;;;;27.80;38.90;;;;;;5074779;28;1975;-49
2022/06/04 08:33:32;;;;;;;;;;;27.80;38.80;;;;;;5074777;28;1745;-49
2022/06/04 08:35:59;;;;;;;;;;;27.70;38.80;;;;;;5073839;28;980;-47
2022/06/04 08:38:26;;;;;;;;;;;27.80;38.80;;;;;;5075450;28;1000;-45
2022/06/04 08:40:54;;;;;;;;;;;27.80;38.80;;;;;;5073192;28;1318;-48
2022/06/04 08:43:31;;;;;;;;;;;28.00;38.90;;;;;;5072945;28;1019;-45
2022/06/04 08:45:58;;;;;;;;;;;27.90;38.80;;;;;;5071404;28;1178;-45
2022/06/04 08:48:29;;;;;;;;;;;27.90;39.00;;;;;;5074260;28;1004;-48
2022/06/04 08:50:56;;;;;;;;;;;27.90;38.60;;;;;;5075047;28;1902;-39
2022/06/04 08:53:25;;;;;;;;;;;28.10;38.50;;;;;;5075842;28;1003;-39
2022/06/04 08:58:51;;;;;;;;;;;28.10;38.40;;;;;;5075247;28;594;-39
2022/06/04 09:01:22;;;;;;;;;;;28.10;38.60;;;;;;5078680;28;1832;-37
2022/06/04 09:03:55;;;;;;;;;;;28.00;38.40;;;;;;5073249;28;988;-37
2022/06/04 09:06:27;;;;;;;;;;;28.00;38.40;;;;;;5073160;28;1003;-36
2022/06/04 09:08:58;;;;;;;;;;;28.00;38.30;;;;;;5073286;28;925;-37
2022/06/04 09:11:28;;;;;;;;;;;28.00;38.70;;;;;;5072519;28;1898;-35
2022/06/04 09:14:17;;;;;;;;;;;27.90;38.70;;;;;;5071015;28;1178;-34
2022/06/04 09:16:48;;;;;;;;;;;27.90;38.70;;;;;;5077538;28;1025;-38
2022/06/04 09:19:18;;;;;;;;;;;28.00;38.70;;;;;;5078593;28;933;-39
2022/06/04 09:21:46;;;;;;;;;;;28.00;38.70;;;;;;5077410;28;980;-40
2022/06/04 09:24:13;;;;;;;;;;;27.90;38.60;;;;;;5078022;28;1012;-39
2022/06/04 09:26:45;;;;;;;;;;;27.90;38.80;;;;;;5077623;28;1049;-40
2022/06/04 09:29:25;;;;;;;;;;;27.90;39.10;;;;;;5077187;28;1041;-40
2022/06/04 09:31:59;;;;;;;;;;;27.90;39.00;;;;;;5077076;28;1910;-39
2022/06/04 09:34:28;;;;;;;;;;;27.90;39.20;;;;;;5075941;28;1861;-40
2022/06/04 09:36:56;;;;;;;;;;;28.00;39.20;;;;;;5076098;28;940;-39
2022/06/04 09:39:24;;;;;;;;;;;28.10;39.10;;;;;;5075480;28;1035;-38
2022/06/04 09:41:52;;;;;;;;;;;28.00;39.10;;;;;;5076923;28;1121;-39
2022/06/04 09:44:18;;;;;;;;;;;28.10;39.00;;;;;;5076841;28;1040;-40
2022/06/04 09:46:46;;;;;;;;;;;28.00;39.10;;;;;;5076325;28;1260;-37
2022/06/04 09:49:18;;;;;;;;;;;28.10;39.30;;;;;;5076676;28;1019;-38
2022/06/04 09:51:47;;;;;;;;;;;28.10;39.20;;;;;;5076164;28;1898;-36
2022/06/04 09:54:21;;;;;;;;;;;28.00;39.10;;;;;;5077248;28;1031;-38
2022/06/04 09:56:50;;;;;;;;;;;28.00;39.10;;;;;;5077847;28;1087;-37
2022/06/04 09:59:19;;;;;;;;;;;28.00;39.20;;;;;;5077760;28;932;-37
2022/06/04 10:01:53;;;;;;;;;;;28.10;40.40;;;;;;5075294;28;1032;-41
2022/06/04 10:04:19;;;;;;;;;;;28.20;39.30;;;;;;5076215;28;988;-41
2022/06/04 10:06:48;;;;;;;;;;;28.10;39.80;;;;;;5076493;28;965;-38
2022/06/04 10:12:03;;;;;;;;;;;28.00;39.90;;;;;;5075945;28;1906;-41
2022/06/04 10:14:30;;;;;;;;;;;27.90;40.10;;;;;;5077311;28;1100;-37
2022/06/04 10:16:57;;;;;;;;;;;27.80;40.10;;;;;;5077616;28;940;-40
2022/06/04 10:19:24;;;;;;;;;;;27.90;40.00;;;;;;5087932;28;1688;-41
2022/06/04 10:22:04;;;;;;;;;;;27.90;39.90;;;;;;5098737;28;964;-40
2022/06/04 10:24:32;;;;;;;;;;;27.80;40.00;;;;;;5096722;28;1157;-39
2022/06/04 10:27:03;;;;;;;;;;;27.80;40.20;;;;;;5093772;28;913;-40
2022/06/04 10:29:47;;;;;;;;;;;27.70;40.20;;;;;;5095654;28;1003;-41
2022/06/04 10:32:21;;;;;;;;;;;27.70;41.50;;;;;;5094910;28;1922;-39
2022/06/04 10:34:51;;;;;;;;;;;27.80;40.30;;;;;;5095926;28;1002;-41
2022/06/04 10:37:38;;;;;;;;;;;27.70;40.40;;;;;;5095922;28;865;-41
2022/06/04 10:40:20;;;;;;;;;;;27.70;41.60;;;;;;5095671;28;1011;-42
2022/06/04 10:42:52;;;;;;;;;;;27.70;40.50;;;;;;5095852;28;980;-39
2022/06/04 10:45:21;;;;;;;;;;;27.70;40.60;;;;;;5096207;28;933;-39
2022/06/04 10:47:51;;;;;;;;;;;27.70;40.60;;;;;;5095709;28;929;-40
2022/06/04 10:50:21;;;;;;;;;;;27.70;40.70;;;;;;5096221;28;990;-37
2022/06/04 10:52:52;;;;;;;;;;;27.70;40.50;;;;;;5094334;28;1898;-41
2022/06/04 10:55:21;;;;;;;;;;;27.70;40.40;;;;;;5095161;28;937;-39
2022/06/04 10:57:51;;;;;;;;;;;27.70;40.20;;;;;;5094523;28;1004;-40
2022/06/04 11:00:19;;;;;;;;;;;27.80;40.20;;;;;;5094600;28;1022;-39
2022/06/04 11:02:49;;;;;;;;;;;27.80;40.20;;;;;;5095387;28;920;-40
2022/06/04 11:05:19;;;;;;;;;;;27.80;40.20;;;;;;5093688;28;943;-38
2022/06/04 11:07:52;;;;;;;;;;;27.70;40.40;;;;;;5094850;28;1059;-38
2022/06/04 11:10:23;;;;;;;;;;;27.80;40.20;;;;;;5094744;28;937;-38
2022/06/04 11:12:54;;;;;;;;;;;27.80;40.40;;;;;;5094258;28;1906;-40
2022/06/04 11:15:23;;;;;;;;;;;27.80;40.30;;;;;;5093273;28;1002;-38
2022/06/04 11:17:51;;;;;;;;;;;27.80;40.30;;;;;;5093423;28;1019;-41
2022/06/04 11:20:20;;;;;;;;;;;27.90;40.10;;;;;;5094259;28;960;-39
2022/06/04 11:22:51;;;;;;;;;;;27.90;40.20;;;;;;5093021;28;988;-38
2022/06/04 11:25:24;;;;;;;;;;;28.00;40.10;;;;;;5094173;28;932;-40
2022/06/04 11:27:54;;;;;;;;;;;27.90;40.10;;;;;;5094395;28;928;-41
2022/06/04 11:30:26;;;;;;;;;;;27.80;40.30;;;;;;5096215;28;1018;-38
2022/06/04 11:32:58;;;;;;;;;;;27.80;40.20;;;;;;5095576;28;1914;-42
2022/06/04 11:35:30;;;;;;;;;;;27.80;40.20;;;;;;5096456;28;1027;-38
2022/06/04 11:38:07;;;;;;;;;;;27.80;40.40;;;;;;5096051;28;881;-39
2022/06/04 11:40:37;;;;;;;;;;;27.80;40.50;;;;;;5095778;28;979;-37
2022/06/04 11:43:09;;;;;;;;;;;27.70;40.40;;;;;;5095736;28;1015;-38
2022/06/04 11:45:54;;;;;;;;;;;27.80;40.50;;;;;;5096151;28;1084;-40
2022/06/04 11:48:29;;;;;;;;;;;27.80;40.40;;;;;;5094804;28;1754;-38
2022/06/04 11:50:59;;;;;;;;;;;27.80;40.50;;;;;;5093117;28;996;-39
2022/06/04 11:53:32;;;;;;;;;;;27.70;40.50;;;;;;5093670;28;1902;-36
2022/06/04 11:56:02;;;;;;;;;;;27.70;40.60;;;;;;5094023;28;953;-40
2022/06/04 11:58:49;;;;;;;;;;;27.70;40.60;;;;;;5094004;28;966;-40
2022/06/04 12:01:17;;;;;;;;;;;27.70;40.60;;;;;;5094315;28;976;-40
2022/06/04 12:03:46;;;;;;;;;;;27.70;40.60;;;;;;5094092;28;884;-37
2022/06/04 12:06:15;;;;;;;;;;;27.70;40.60;;;;;;5094141;28;984;-39
2022/06/04 12:08:43;;;;;;;;;;;27.80;40.70;;;;;;5092651;28;1020;-38
2022/06/04 12:11:16;;;;;;;;;;;27.80;40.60;;;;;;5093018;28;1028;-37
2022/06/04 12:13:52;;;;;;;;;;;27.80;40.50;;;;;;5092771;28;1975;-40
2022/06/04 12:16:21;;;;;;;;;;;27.80;40.60;;;;;;5093599;28;973;-38
2022/06/04 12:18:54;;;;;;;;;;;27.90;40.60;;;;;;5094162;28;1005;-41
2022/06/04 12:24:27;;;;;;;;;;;27.80;40.60;;;;;;5095163;28;694;-41
2022/06/04 12:27:04;;;;;;;;;;;27.80;40.60;;;;;;5094776;28;1011;-37
2022/06/04 12:29:34;;;;;;;;;;;27.80;40.60;;;;;;5095946;28;982;-38
2022/06/04 12:32:02;;;;;;;;;;;27.80;40.60;;;;;;5095769;28;1906;-39
2022/06/04 12:34:33;;;;;;;;;;;27.90;40.70;;;;;;5095211;28;1015;-38
2022/06/04 12:36:59;;;;;;;;;;;28.10;41.00;;;;;;5094843;28;1023;-42
2022/06/04 12:39:28;;;;;;;;;;;28.00;40.50;;;;;;5095600;28;924;-42
2022/06/04 12:41:56;;;;;;;;;;;28.00;41.00;;;;;;5094646;28;849;-42
2022/06/04 12:44:24;;;;;;;;;;;28.00;41.00;;;;;;5096372;28;1003;-42
2022/06/04 12:46:53;;;;;;;;;;;28.00;41.20;;;;;;5094767;28;1096;-43
2022/06/04 12:49:35;;;;;;;;;;;28.10;40.90;;;;;;5095594;28;1032;-43
2022/06/04 12:52:06;;;;;;;;;;;28.10;40.90;;;;;;5094304;28;1897;-42
2022/06/04 12:54:40;;;;;;;;;;;28.10;41.10;;;;;;5095806;28;1001;-43
2022/06/04 12:57:29;;;;;;;;;;;28.10;41.00;;;;;;5094182;28;911;-43
2022/06/04 13:00:09;;;;;;;;;;;28.10;41.30;;;;;;5093603;28;1013;-43
2022/06/04 13:02:39;;;;;;;;;;;28.10;41.10;;;;;;5092417;28;876;-42
2022/06/04 13:05:14;;;;;;;;;;;28.00;41.20;;;;;;5093692;28;971;-43
2022/06/04 13:07:45;;;;;;;;;;;28.20;41.10;;;;;;5093115;28;944;-37
2022/06/04 13:10:16;;;;;;;;;;;28.30;40.80;;;;;;5093552;28;1081;-36
2022/06/04 13:12:46;;;;;;;;;;;28.30;40.70;;;;;;5091752;28;1906;-37
2022/06/04 13:15:20;;;;;;;;;;;28.40;41.70;;;;;;5093563;28;1054;-38
2022/06/04 13:17:49;;;;;;;;;;;28.30;40.50;;;;;;5092900;28;869;-36
2022/06/04 13:20:34;;;;;;;;;;;28.40;40.60;;;;;;5093175;28;904;-36
2022/06/04 13:23:04;;;;;;;;;;;28.40;40.60;;;;;;5079854;28;1799;-36
2022/06/04 13:25:34;;;;;;;;;;;28.30;40.60;;;;;;5094237;28;995;-37
2022/06/04 13:28:01;;;;;;;;;;;28.30;40.60;;;;;;5094137;28;900;-37
2022/06/04 13:30:28;;;;;;;;;;;28.40;40.50;;;;;;5096172;28;948;-37
2022/06/04 13:33:06;;;;;;;;;;;28.40;40.50;;;;;;5096326;28;1901;-36
2022/06/04 13:35:33;;;;;;;;;;;28.40;40.50;;;;;;5095918;28;936;-36
2022/06/04 13:38:02;;;;;;;;;;;28.50;40.20;;;;;;5095991;28;944;-36
2022/06/04 13:40:30;;;;;;;;;;;28.40;40.40;;;;;;5096146;28;1016;-36
2022/06/04 13:42:59;;;;;;;;;;;28.50;40.40;;;;;;5095976;28;893;-37
2022/06/04 13:45:28;;;;;;;;;;;28.60;40.30;;;;;;5094015;28;956;-37
2022/06/04 13:47:55;;;;;;;;;;;28.50;40.20;;;;;;5093570;28;749;-37
2022/06/04 13:50:25;;;;;;;;;;;28.60;40.10;;;;;;5093033;28;929;-37
2022/06/04 13:52:53;;;;;;;;;;;28.60;40.00;;;;;;5092530;28;1898;-37
2022/06/04 13:55:28;;;;;;;;;;;28.60;40.20;;;;;;5092327;28;892;-36
2022/06/04 13:57:55;;;;;;;;;;;28.60;40.00;;;;;;5093180;28;984;-37
2022/06/04 14:00:24;;;;;;;;;;;28.70;40.10;;;;;;5092454;28;903;-36
2022/06/04 14:02:53;;;;;;;;;;;28.70;40.10;;;;;;5092341;28;1003;-38
2022/06/04 14:08:08;;;;;;;;;;;28.80;39.60;;;;;;5092338;28;601;-37
2022/06/04 14:10:35;;;;;;;;;;;28.90;39.70;;;;;;5091423;28;1007;-39
2022/06/04 14:13:16;;;;;;;;;;;28.90;39.60;;;;;;5091877;28;1910;-38
2022/06/04 14:15:51;;;;;;;;;;;28.90;39.80;;;;;;5093691;28;990;-39
2022/06/04 14:18:33;;;;;;;;;;;29.00;39.60;;;;;;5094104;28;932;-38
2022/06/04 14:21:05;;;;;;;;;;;29.00;39.50;;;;;;5093675;28;904;-37
2022/06/04 14:23:38;;;;;;;;;;;29.00;39.80;;;;;;5092772;28;1020;-37
2022/06/04 14:26:10;;;;;;;;;;;29.00;39.90;;;;;;5093256;28;984;-37
2022/06/04 14:28:42;;;;;;;;;;;29.00;39.80;;;;;;5093290;28;1016;-37
2022/06/04 14:31:13;;;;;;;;;;;29.00;40.00;;;;;;5093301;28;984;-38
2022/06/04 14:33:40;;;;;;;;;;;28.90;40.20;;;;;;5093942;28;1972;-37
2022/06/04 14:36:08;;;;;;;;;;;28.90;40.00;;;;;;5093624;28;1014;-44
2022/06/04 14:38:37;;;;;;;;;;;29.00;39.70;;;;;;5093573;28;1203;-44
2022/06/04 14:41:09;;;;;;;;;;;29.10;39.70;;;;;;5093494;28;943;-44
2022/06/04 14:43:54;;;;;;;;;;;29.10;39.60;;;;;;5091471;28;975;-41
2022/06/04 14:46:35;;;;;;;;;;;29.10;39.80;;;;;;5090971;28;903;-41
2022/06/04 14:49:13;;;;;;;;;;;29.10;39.60;;;;;;5091605;28;995;-41
2022/06/04 14:51:52;;;;;;;;;;;29.20;39.50;;;;;;5094181;28;980;-36
2022/06/04 14:54:20;;;;;;;;;;;29.20;39.40;;;;;;5094707;28;1906;-37
2022/06/04 14:56:58;;;;;;;;;;;29.20;39.60;;;;;;5088638;28;1134;-35
2022/06/04 14:59:43;;;;;;;;;;;29.30;39.50;;;;;;5097925;28;1014;-44
2022/06/04 15:02:17;;;;;;;;;;;29.40;39.20;;;;;;5095961;28;1294;-41
2022/06/04 15:04:59;;;;;;;;;;;29.20;39.60;;;;;;5097342;28;969;-41
2022/06/04 15:07:36;;;;;;;;;;;29.10;39.90;;;;;;5093895;28;1810;-41
2022/06/04 15:10:19;;;;;;;;;;;29.10;40.20;;;;;;5097612;28;995;-40